TimeEDT,TemperatureF,Dew PointF,Humidity,Sea Level PressureIn,VisibilityMPH,Wind Direction,Wind SpeedMPH,Gust SpeedMPH,PrecipitationIn,Events,Conditions,WindDirDegrees,DateUTC
12:54 AM,55.9,51.1,84,29.94,10.0,South,5.8,-,N/A,,Clear,190,2012-10-02 04:54:00
1:54 AM,55.9,51.1,84,29.96,10.0,Calm,Calm,-,N/A,,Clear,0,2012-10-02 05:54:00
2:54 AM,55.9,51.1,84,29.95,10.0,South,3.5,-,N/A,,Clear,190,2012-10-02 06:54:00
3:54 AM,55.0,50.0,83,29.97,10.0,South,3.5,-,N/A,,Clear,190,2012-10-02 07:54:00
4:54 AM,55.9,51.1,84,29.97,10.0,SSW,3.5,-,N/A,,Clear,200,2012-10-02 08:54:00
5:54 AM,55.0,51.1,86,29.99,10.0,SSW,4.6,-,N/A,,Scattered Clouds,210,2012-10-02 09:54:00
6:54 AM,55.9,51.1,84,30.00,10.0,South,4.6,-,N/A,,Mostly Cloudy,180,2012-10-02 10:54:00
7:54 AM,57.9,52.0,81,30.02,10.0,SSW,6.9,-,N/A,,Mostly Cloudy,210,2012-10-02 11:54:00
8:54 AM,61.0,53.1,75,30.04,10.0,WSW,4.6,-,N/A,,Mostly Cloudy,240,2012-10-02 12:54:00
9:54 AM,64.0,53.1,67,30.05,10.0,WSW,4.6,-,N/A,,Clear,240,2012-10-02 13:54:00
10:54 AM,66.0,54.0,65,30.05,10.0,SW,4.6,-,N/A,,Clear,230,2012-10-02 14:54:00
11:54 AM,69.1,54.0,58,30.04,10.0,West,4.6,-,N/A,,Clear,260,2012-10-02 15:54:00
12:54 PM,72.0,54.0,53,30.04,10.0,WSW,8.1,-,N/A,,Clear,240,2012-10-02 16:54:00
1:54 PM,68.0,55.0,63,30.04,10.0,West,5.8,-,0.00,Rain,Light Rain,260,2012-10-02 17:54:00
2:54 PM,64.9,57.9,78,30.04,7.0,Calm,Calm,-,0.03,Rain,Light Rain,0,2012-10-02 18:54:00
3:54 PM,64.9,59.0,81,30.05,10.0,Calm,Calm,-,0.01,Rain,Light Rain,0,2012-10-02 19:54:00
4:54 PM,64.0,59.0,84,30.06,10.0,Calm,Calm,-,0.01,Rain,Light Rain,0,2012-10-02 20:54:00
5:26 PM,64.4,59.0,83,30.05,10.0,South,3.5,-,0.00,,Overcast,180,2012-10-02 21:26:00
5:54 PM,63.0,59.0,87,30.06,10.0,SW,3.5,-,0.01,Rain,Light Rain,220,2012-10-02 21:54:00
6:54 PM,62.1,59.0,90,30.06,10.0,SW,3.5,-,0.02,,Overcast,220,2012-10-02 22:54:00
7:54 PM,62.6,59.0,88,30.06,10.0,Calm,Calm,-,N/A,,Overcast,0,2012-10-02 23:54:00
8:54 PM,60.8,57.2,88,30.07,10.0,Calm,Calm,-,N/A,,Overcast,0,2012-10-03 00:54:00
9:54 PM,62.1,59.0,90,30.07,7.0,Calm,Calm,-,N/A,,Mostly Cloudy,0,2012-10-03 01:54:00
10:32 PM,62.6,59.0,88,30.08,6.0,Calm,Calm,-,0.00,,Overcast,0,2012-10-03 02:32:00
10:54 PM,62.1,59.0,90,30.08,6.0,Calm,Calm,-,0.00,,Overcast,0,2012-10-03 02:54:00
11:33 PM,62.6,59.0,88,30.07,6.0,Calm,Calm,-,N/A,,Overcast,0,2012-10-03 03:33:00
11:54 PM,62.1,59.0,90,30.07,5.0,Calm,Calm,-,N/A,,Overcast,0,2012-10-03 03:54:00